Time;durP1;ratioP1;P1;durP2;ratioP2;P2;SDS_P1;SDS_P2;PMS_P1;PMS_P2;Temp;Humidity;BMP_temperature;BMP_pressure;BME280_temperature;BME280_humidity;BME280_pressure;Samples;Min_cycle;Max_cycle;Signal;HPM_P1;HPM_P2
2022/11/02 00:01:22;;;;;;;7.13;1.70;;;12.40;99.90;;;;;;5071791;28;20457;-73
2022/11/02 00:03:47;;;;;;;9.32;1.83;;;12.40;99.90;;;;;;5059684;28;20028;-74
2022/11/02 00:06:13;;;;;;;9.40;2.58;;;12.40;99.90;;;;;;5071321;28;20115;-73
2022/11/02 00:08:38;;;;;;;11.60;3.15;;;12.30;99.90;;;;;;5072108;28;20419;-74
2022/11/02 00:11:04;;;;;;;6.75;2.17;;;12.30;99.90;;;;;;5071338;28;20017;-74
2022/11/02 00:13:30;;;;;;;9.32;2.47;;;12.30;99.90;;;;;;5071839;28;20021;-74
2022/11/02 00:15:56;;;;;;;11.23;2.42;;;12.30;99.90;;;;;;5072136;28;20031;-74
2022/11/02 00:18:21;;;;;;;9.30;1.90;;;12.30;99.90;;;;;;5071123;28;20032;-74
2022/11/02 00:20:47;;;;;;;5.78;2.00;;;12.40;99.90;;;;;;5071801;28;20027;-74
2022/11/02 00:23:14;;;;;;;8.70;2.17;;;12.40;99.90;;;;;;5072184;28;20103;-74
2022/11/02 00:25:46;;;;;;;11.63;2.15;;;12.50;99.90;;;;;;5071207;28;20053;-73
2022/11/02 00:28:13;;;;;;;14.35;2.10;;;12.50;99.90;;;;;;5071865;28;20024;-74
2022/11/02 00:30:38;;;;;;;11.75;2.00;;;12.50;99.90;;;;;;5071252;28;20040;-73
2022/11/02 00:33:04;;;;;;;5.45;1.92;;;12.50;99.90;;;;;;5071531;28;20070;-74
2022/11/02 00:35:30;;;;;;;5.65;1.77;;;12.70;99.90;;;;;;5075246;28;20056;-72
2022/11/02 00:37:55;;;;;;;10.02;1.75;;;12.70;99.90;;;;;;5075440;28;20021;-73
2022/11/02 00:40:21;;;;;;;4.85;1.50;;;12.80;99.90;;;;;;5074622;28;20046;-73
2022/11/02 00:42:46;;;;;;;5.30;1.05;;;12.70;99.90;;;;;;5074945;28;20102;-73
2022/11/02 00:45:12;;;;;;;2.30;0.90;;;12.60;99.90;;;;;;5075349;28;20033;-73
2022/11/02 00:47:38;;;;;;;11.25;1.20;;;12.40;99.90;;;;;;5074307;28;20507;-74
2022/11/02 00:50:04;;;;;;;3.17;1.10;;;13.20;99.90;;;;;;5075144;28;20064;-73
2022/11/02 00:52:30;;;;;;;5.30;0.70;;;12.30;99.90;;;;;;5061511;28;20029;-73
2022/11/02 00:54:56;;;;;;;3.60;0.93;;;12.20;99.90;;;;;;5073431;28;20108;-73
2022/11/02 00:57:21;;;;;;;6.07;0.98;;;12.10;99.90;;;;;;5074675;28;20052;-73
2022/11/02 00:59:47;;;;;;;4.30;0.65;;;12.00;99.90;;;;;;5074362;28;20074;-73
2022/11/02 01:02:12;;;;;;;1.42;0.50;;;11.90;99.90;;;;;;5074126;28;20028;-73
2022/11/02 01:04:38;;;;;;;4.53;0.90;;;11.90;99.90;;;;;;5074462;28;20078;-74
2022/11/02 01:07:03;;;;;;;2.75;0.90;;;11.90;99.90;;;;;;5075085;28;20024;-73
2022/11/02 01:09:29;;;;;;;3.42;0.70;;;11.90;99.90;;;;;;5073812;28;20113;-74
2022/11/02 01:11:55;;;;;;;2.13;0.98;;;11.80;99.90;;;;;;5074555;28;20016;-73
2022/11/02 01:14:21;;;;;;;2.35;0.65;;;11.70;99.90;;;;;;5074227;28;20048;-74
2022/11/02 01:16:46;;;;;;;5.78;1.00;;;11.80;99.90;;;;;;5075604;28;20035;-73
2022/11/02 01:19:13;;;;;;;3.35;0.90;;;11.70;99.90;;;;;;5074898;28;20481;-73
2022/11/02 01:21:39;;;;;;;3.75;0.77;;;11.70;99.90;;;;;;5073717;28;20048;-73
2022/11/02 01:24:04;;;;;;;9.65;1.02;;;11.70;99.90;;;;;;5075072;28;20063;-73
2022/11/02 01:26:30;;;;;;;7.07;0.90;;;11.70;99.90;;;;;;5075492;28;20567;-72
2022/11/02 01:28:56;;;;;;;5.45;1.00;;;11.60;99.90;;;;;;5073756;28;20070;-73
2022/11/02 01:31:21;;;;;;;2.53;0.90;;;11.60;99.90;;;;;;5074391;28;20100;-73
2022/11/02 01:33:47;;;;;;;7.32;1.08;;;11.50;99.90;;;;;;5074575;28;20028;-72
2022/11/02 01:36:15;;;;;;;5.40;1.10;;;11.40;99.90;;;;;;5074640;28;20480;-74
2022/11/02 01:38:40;;;;;;;6.53;1.17;;;11.40;99.90;;;;;;5076855;28;20086;-72
2022/11/02 01:41:06;;;;;;;5.65;1.25;;;11.40;99.90;;;;;;5081429;28;20020;-73
2022/11/02 01:43:34;;;;;;;6.38;0.90;;;11.40;99.90;;;;;;5079534;28;20024;-74
2022/11/02 01:46:05;;;;;;;5.18;1.00;;;11.30;99.90;;;;;;5081155;28;20051;-75
2022/11/02 01:48:35;;;;;;;5.60;1.20;;;11.40;99.90;;;;;;5079705;28;20028;-73
2022/11/02 01:51:05;;;;;;;5.78;1.05;;;11.30;99.90;;;;;;5074038;28;20380;-73
2022/11/02 01:53:32;;;;;;;3.85;1.02;;;11.30;99.90;;;;;;5061053;28;20501;-74
2022/11/02 01:55:59;;;;;;;6.47;0.85;;;11.30;99.90;;;;;;5073923;28;20070;-74
2022/11/02 01:58:26;;;;;;;6.57;1.33;;;11.30;99.90;;;;;;5073278;28;20400;-74
2022/11/02 02:00:51;;;;;;;11.57;1.40;;;11.30;99.90;;;;;;5066225;28;20032;-73
2022/11/02 02:03:20;;;;;;;7.10;1.15;;;11.30;99.90;;;;;;5061046;28;20025;-73
2022/11/02 02:06:11;;;;;;;13.38;1.70;;;11.20;99.90;;;;;;5057862;28;20496;-73
2022/11/02 02:08:41;;;;;;;7.80;1.63;;;11.20;99.90;;;;;;5069442;28;20171;-72
2022/11/02 02:11:26;;;;;;;8.20;1.05;;;11.20;99.90;;;;;;5064138;28;20023;-73
2022/11/02 02:13:58;;;;;;;5.88;1.42;;;11.20;99.90;;;;;;5073509;28;20427;-74
2022/11/02 02:16:54;;;;;;;8.20;1.45;;;11.30;99.90;;;;;;5073303;28;20024;-73
2022/11/02 02:19:29;;;;;;;8.40;1.73;;;11.50;99.90;;;;;;5072752;28;20036;-73
2022/11/02 02:22:13;;;;;;;8.77;1.42;;;11.60;99.90;;;;;;5073302;28;20556;-73
2022/11/02 02:25:04;;;;;;;10.82;1.90;;;11.70;99.90;;;;;;5072169;28;20020;-73
2022/11/02 02:27:55;;;;;;;11.30;2.10;;;11.80;99.90;;;;;;5072883;28;20028;-73
2022/11/02 02:30:22;;;;;;;5.88;1.60;;;11.80;99.90;;;;;;5073148;28;20045;-73
2022/11/02 02:32:59;;;;;;;9.27;1.80;;;11.90;99.90;;;;;;5072657;28;20052;-74
2022/11/02 02:35:38;;;;;;;7.18;1.55;;;12.00;99.90;;;;;;5059377;28;20036;-73
2022/11/02 02:38:12;;;;;;;7.97;2.05;;;12.00;99.90;;;;;;5060947;28;20491;-73
2022/11/02 02:41:03;;;;;;;7.18;1.70;;;11.90;99.90;;;;;;5072241;28;20089;-74
2022/11/02 02:43:36;;;;;;;6.28;1.42;;;12.00;99.90;;;;;;5044061;28;20039;-74
2022/11/02 02:46:42;;;;;;;6.88;1.92;;;12.00;99.90;;;;;;5072000;28;20028;-74
2022/11/02 02:49:14;;;;;;;8.35;2.25;;;12.00;99.90;;;;;;5072414;28;20492;-74
2022/11/02 02:51:41;;;;;;;10.93;2.40;;;12.00;99.90;;;;;;5072291;28;20020;-73
2022/11/02 02:54:11;;;;;;;12.35;1.85;;;12.00;99.90;;;;;;5072199;28;20032;-73
2022/11/02 02:56:45;;;;;;;8.93;1.60;;;11.90;99.90;;;;;;5071855;28;20028;-74
2022/11/02 02:59:27;;;;;;;9.82;1.50;;;12.00;99.90;;;;;;5054794;28;20086;-73
2022/11/02 03:01:54;;;;;;;8.05;1.90;;;12.10;99.90;;;;;;5059993;28;20095;-74
2022/11/02 03:04:20;;;;;;;9.60;2.13;;;12.10;99.90;;;;;;5072704;28;20830;-74
2022/11/02 03:06:52;;;;;;;11.50;1.88;;;12.20;99.90;;;;;;5071990;28;20029;-74
2022/11/02 03:09:55;;;;;;;13.80;2.70;;;12.10;99.90;;;;;;5060356;28;20468;-74
2022/11/02 03:12:39;;;;;;;17.33;2.60;;;12.10;99.90;;;;;;5061501;28;20081;-73
2022/11/02 03:15:19;;;;;;;13.63;3.17;;;12.10;99.90;;;;;;5086159;28;20055;-73
2022/11/02 03:17:59;;;;;;;11.25;2.15;;;12.00;99.90;;;;;;5072421;28;20077;-74
2022/11/02 03:20:49;;;;;;;7.97;1.95;;;12.00;99.90;;;;;;5072281;28;20012;-73
2022/11/02 03:23:24;;;;;;;12.85;2.28;;;12.00;99.90;;;;;;5071935;28;20028;-73
2022/11/02 03:25:55;;;;;;;11.05;2.00;;;12.00;99.90;;;;;;5072285;28;20442;-73
2022/11/02 03:28:49;;;;;;;8.02;2.00;;;12.00;99.90;;;;;;5079639;28;20028;-74
2022/11/02 03:31:31;;;;;;;13.40;2.08;;;12.00;99.90;;;;;;5081433;28;20029;-73
2022/11/02 03:34:15;;;;;;;9.25;2.33;;;12.10;99.90;;;;;;5072570;28;20477;-74
2022/11/02 03:36:50;;;;;;;17.88;2.80;;;12.10;99.90;;;;;;5071350;28;20031;-73
2022/11/02 03:39:28;;;;;;;23.27;2.55;;;12.10;99.90;;;;;;5072540;28;20055;-74
2022/11/02 03:41:55;;;;;;;14.18;2.33;;;12.20;99.90;;;;;;5072351;28;20028;-73
2022/11/02 03:44:24;;;;;;;12.82;2.70;;;12.20;99.90;;;;;;5071985;28;20017;-75
2022/11/02 03:46:58;;;;;;;13.77;2.85;;;12.40;99.90;;;;;;5072460;28;20035;-73
2022/11/02 03:49:26;;;;;;;11.18;2.47;;;12.30;99.90;;;;;;5071229;28;20025;-75
2022/11/02 03:51:54;;;;;;;14.93;1.90;;;12.30;99.90;;;;;;5072167;28;20043;-74
2022/11/02 03:54:34;;;;;;;20.80;2.50;;;12.30;99.90;;;;;;5072126;28;20037;-74
2022/11/02 03:57:03;;;;;;;18.70;2.57;;;12.30;99.90;;;;;;5071389;28;20021;-74
2022/11/02 03:59:31;;;;;;;18.08;2.90;;;12.30;99.90;;;;;;5071594;28;20262;-74
2022/11/02 04:01:58;;;;;;;10.02;2.00;;;12.20;99.90;;;;;;5072208;28;20032;-74
2022/11/02 04:04:24;;;;;;;11.48;1.90;;;12.20;99.90;;;;;;5071153;28;20013;-74
2022/11/02 04:06:51;;;;;;;18.27;2.83;;;12.20;99.90;;;;;;5072010;28;20033;-74
2022/11/02 04:09:17;;;;;;;15.90;2.75;;;12.20;99.90;;;;;;5063370;28;20063;-74
2022/11/02 04:14:36;;;;;;;14.63;2.75;;;12.20;99.90;;;;;;5075551;28;20137;-74
2022/11/02 04:19:46;;;;;;;10.88;3.15;;;12.20;99.90;;;;;;5075591;28;20032;-73
2022/11/02 04:27:41;;;;;;;14.68;2.35;;;12.20;99.90;;;;;;5075275;28;20031;-73
2022/11/02 04:30:07;;;;;;;13.07;2.30;;;12.20;99.90;;;;;;5075564;28;20115;-74
2022/11/02 04:35:25;;;;;;;17.92;2.67;;;12.10;99.90;;;;;;5075519;28;20055;-74
2022/11/02 04:40:34;;;;;;;9.88;2.65;;;12.00;99.90;;;;;;5074652;28;20069;-75
2022/11/02 04:43:00;;;;;;;14.15;2.28;;;12.00;99.90;;;;;;5075422;28;20069;-75
2022/11/02 04:45:26;;;;;;;12.23;2.40;;;12.10;99.90;;;;;;5074480;28;20021;-74
2022/11/02 04:47:51;;;;;;;14.73;2.60;;;12.10;99.90;;;;;;5075202;28;20573;-73
2022/11/02 04:50:17;;;;;;;15.93;3.08;;;12.10;99.90;;;;;;5075097;28;20036;-74
2022/11/02 04:52:43;;;;;;;12.43;2.25;;;12.10;99.90;;;;;;5074086;28;20052;-73
2022/11/02 04:55:08;;;;;;;16.77;2.63;;;12.10;99.90;;;;;;5075307;28;20028;-73
2022/11/02 04:57:34;;;;;;;11.45;2.83;;;12.10;99.90;;;;;;5074495;28;20043;-73
2022/11/02 05:00:00;;;;;;;16.98;2.78;;;12.10;99.90;;;;;;5074413;28;20036;-72
2022/11/02 05:02:25;;;;;;;20.15;2.60;;;12.10;99.90;;;;;;5074768;28;20384;-73
2022/11/02 05:04:51;;;;;;;19.33;2.67;;;12.00;99.90;;;;;;5074895;28;20027;-72
2022/11/02 05:07:16;;;;;;;16.38;2.65;;;12.20;99.90;;;;;;5074320;28;20029;-73
2022/11/02 05:09:42;;;;;;;11.80;2.28;;;12.20;99.90;;;;;;5059887;28;20033;-73
2022/11/02 05:12:08;;;;;;;12.90;2.13;;;12.20;99.90;;;;;;5074742;28;20028;-73
2022/11/02 05:14:33;;;;;;;9.18;2.25;;;12.10;99.90;;;;;;5074300;28;20028;-72
2022/11/02 05:16:59;;;;;;;12.43;2.70;;;12.10;99.90;;;;;;5074912;28;20203;-73
2022/11/02 05:19:25;;;;;;;19.55;2.47;;;12.00;99.90;;;;;;5086683;28;20024;-73
2022/11/02 05:21:50;;;;;;;13.82;2.22;;;12.00;99.90;;;;;;5078647;28;20013;-72
2022/11/02 05:24:16;;;;;;;19.55;2.42;;;12.00;99.90;;;;;;5075012;28;20075;-72
2022/11/02 05:26:43;;;;;;;18.55;2.67;;;12.00;99.90;;;;;;5074435;28;20044;-75
2022/11/02 05:29:08;;;;;;;15.60;2.65;;;11.90;99.90;;;;;;5076194;28;20412;-72
2022/11/02 05:31:34;;;;;;;19.30;3.17;;;11.90;99.90;;;;;;5076008;28;20108;-73
2022/11/02 05:33:59;;;;;;;9.43;2.00;;;11.90;99.90;;;;;;5078633;28;20032;-74
2022/11/02 05:36:25;;;;;;;13.25;2.83;;;11.90;99.90;;;;;;5077393;28;20020;-74
2022/11/02 05:38:54;;;;;;;13.48;2.17;;;11.80;99.90;;;;;;5078033;28;20024;-73
2022/11/02 05:41:20;;;;;;;19.75;3.47;;;11.90;99.90;;;;;;5081800;28;20043;-74
2022/11/02 05:43:46;;;;;;;13.93;2.35;;;11.90;99.90;;;;;;5080270;28;20030;-74
2022/11/02 05:46:14;;;;;;;14.30;2.03;;;11.90;99.90;;;;;;5077417;28;20028;-74
2022/11/02 05:48:40;;;;;;;12.93;2.03;;;11.90;99.90;;;;;;5073178;28;20033;-74
2022/11/02 05:51:06;;;;;;;14.15;2.10;;;11.90;99.90;;;;;;5074256;28;20020;-73
2022/11/02 05:53:33;;;;;;;11.80;2.13;;;11.80;99.90;;;;;;5073741;28;20052;-74
2022/11/02 05:55:59;;;;;;;19.77;2.42;;;11.80;99.90;;;;;;5073757;28;20039;-74
2022/11/02 05:58:26;;;;;;;10.30;1.77;;;11.70;99.90;;;;;;5073572;28;20024;-73
2022/11/02 06:00:52;;;;;;;15.25;2.08;;;11.70;99.90;;;;;;5073810;28;20033;-74
2022/11/02 06:03:18;;;;;;;15.90;2.50;;;11.70;99.90;;;;;;5073197;28;20027;-73
2022/11/02 06:05:44;;;;;;;14.30;2.20;;;11.60;99.90;;;;;;5073198;28;20025;-73
2022/11/02 06:08:10;;;;;;;10.02;2.15;;;11.60;99.90;;;;;;5067369;28;20054;-73
2022/11/02 06:10:36;;;;;;;8.65;2.20;;;11.60;99.90;;;;;;5075208;28;20070;-74
2022/11/02 06:13:02;;;;;;;8.63;1.77;;;11.70;99.90;;;;;;5080742;28;20027;-74
2022/11/02 06:15:30;;;;;;;9.63;1.65;;;11.60;99.90;;;;;;5071660;28;20025;-73
2022/11/02 06:17:56;;;;;;;9.50;1.80;;;11.70;99.90;;;;;;5070736;28;20158;-73
2022/11/02 06:20:22;;;;;;;8.93;2.10;;;11.60;99.90;;;;;;5073611;28;20108;-73
2022/11/02 06:22:48;;;;;;;9.93;2.90;;;11.60;99.90;;;;;;5072392;28;20124;-73
2022/11/02 06:25:14;;;;;;;11.65;2.70;;;11.60;99.90;;;;;;5072965;28;20047;-73
2022/11/02 06:27:40;;;;;;;7.45;1.40;;;11.60;99.90;;;;;;5075508;28;20032;-74
2022/11/02 06:30:07;;;;;;;5.38;1.50;;;11.60;99.90;;;;;;5069838;28;20032;-73
2022/11/02 06:32:32;;;;;;;8.00;1.38;;;11.50;99.90;;;;;;5071597;28;20020;-73
2022/11/02 06:34:58;;;;;;;5.60;1.88;;;11.50;99.90;;;;;;5075600;28;20096;-74
2022/11/02 06:37:24;;;;;;;10.27;1.88;;;11.50;99.90;;;;;;5073882;28;20060;-74
2022/11/02 06:39:49;;;;;;;13.27;1.75;;;11.50;99.90;;;;;;5069340;28;20360;-73
2022/11/02 06:42:15;;;;;;;9.85;2.15;;;11.80;99.90;;;;;;5073221;28;20043;-74
2022/11/02 06:44:40;;;;;;;9.95;1.60;;;11.50;99.90;;;;;;5071333;28;20050;-74
2022/11/02 06:47:06;;;;;;;12.00;1.70;;;11.60;99.90;;;;;;5070947;28;20027;-73
2022/11/02 06:49:32;;;;;;;11.68;1.67;;;11.60;99.90;;;;;;5073913;28;20028;-74
2022/11/02 06:51:57;;;;;;;15.57;1.75;;;11.60;99.90;;;;;;5072394;28;20094;-74
2022/11/02 06:54:23;;;;;;;11.05;1.40;;;11.70;99.90;;;;;;5075457;28;20020;-73
2022/11/02 06:56:49;;;;;;;13.90;1.92;;;11.70;99.90;;;;;;5089734;28;20042;-73
2022/11/02 06:59:14;;;;;;;6.30;1.20;;;11.80;99.90;;;;;;5085902;28;20032;-74
2022/11/02 07:01:43;;;;;;;19.27;2.75;;;11.80;99.90;;;;;;5079786;28;20361;-74
2022/11/02 07:04:08;;;;;;;11.45;2.53;;;11.90;99.90;;;;;;5074559;28;20588;-73
2022/11/02 07:06:34;;;;;;;17.75;2.65;;;12.00;99.90;;;;;;5072040;28;20026;-74
2022/11/02 07:08:59;;;;;;;13.23;1.77;;;12.00;99.90;;;;;;5082216;28;20024;-75
2022/11/02 07:11:25;;;;;;;14.63;1.70;;;12.00;99.90;;;;;;5077143;28;20410;-74
2022/11/02 07:13:50;;;;;;;15.07;1.65;;;12.10;99.90;;;;;;5072320;28;20413;-74
2022/11/02 07:16:16;;;;;;;9.95;1.65;;;12.00;99.90;;;;;;5072325;28;20047;-74
2022/11/02 07:18:41;;;;;;;6.05;1.70;;;12.10;99.90;;;;;;5071676;28;20035;-73
2022/11/02 07:21:10;;;;;;;12.02;2.17;;;12.20;99.90;;;;;;5071644;28;20074;-73
2022/11/02 07:23:35;;;;;;;9.77;2.00;;;12.20;99.90;;;;;;5070207;28;20527;-73
2022/11/02 07:26:01;;;;;;;14.75;1.92;;;12.20;99.90;;;;;;5071841;28;20140;-73
2022/11/02 07:28:27;;;;;;;12.00;1.90;;;12.30;99.90;;;;;;5070644;28;20413;-74
2022/11/02 07:30:54;;;;;;;9.07;1.95;;;12.30;99.90;;;;;;5067387;28;20029;-74
2022/11/02 07:33:20;;;;;;;8.60;1.70;;;12.30;99.90;;;;;;5067653;28;20078;-74
2022/11/02 07:35:45;;;;;;;11.40;2.13;;;12.40;99.90;;;;;;5068681;28;20099;-74
2022/11/02 07:38:11;;;;;;;10.55;1.63;;;12.40;99.90;;;;;;5070181;28;20110;-74
2022/11/02 07:40:37;;;;;;;8.18;1.60;;;12.40;99.90;;;;;;5070935;28;20366;-74
2022/11/02 07:43:04;;;;;;;14.43;2.53;;;12.40;99.90;;;;;;5053269;28;20082;-74
2022/11/02 07:45:30;;;;;;;7.97;1.45;;;12.40;99.90;;;;;;5069862;28;20038;-74
2022/11/02 07:47:56;;;;;;;10.20;2.47;;;12.30;99.90;;;;;;5073880;28;20017;-74
2022/11/02 07:50:23;;;;;;;11.82;1.83;;;12.40;99.90;;;;;;5069708;28;20558;-74
2022/11/02 07:52:51;;;;;;;8.90;3.05;;;12.40;99.90;;;;;;5072558;28;20020;-75
2022/11/02 07:55:19;;;;;;;12.82;3.33;;;12.30;99.90;;;;;;5079351;28;20033;-74
2022/11/02 07:57:55;;;;;;;13.77;3.78;;;12.30;99.90;;;;;;5071267;28;20021;-73
2022/11/02 08:00:21;;;;;;;5.50;1.67;;;12.30;99.90;;;;;;5072683;28;20028;-73
2022/11/02 08:02:46;;;;;;;6.07;1.75;;;12.30;99.90;;;;;;5071353;28;20054;-73
2022/11/02 08:05:12;;;;;;;6.60;1.70;;;12.30;99.90;;;;;;5075136;28;20027;-74
2022/11/02 08:07:37;;;;;;;6.38;1.73;;;12.30;99.90;;;;;;5076996;28;20020;-75
2022/11/02 08:10:06;;;;;;;11.52;1.50;;;12.20;99.90;;;;;;5057465;28;20500;-74
2022/11/02 08:12:32;;;;;;;12.30;2.03;;;12.30;99.90;;;;;;5072473;28;20017;-76
2022/11/02 08:14:57;;;;;;;13.80;2.97;;;12.30;99.90;;;;;;5072506;28;20500;-73
2022/11/02 08:17:23;;;;;;;7.82;1.33;;;12.30;99.90;;;;;;5071941;28;20024;-76
2022/11/02 08:19:49;;;;;;;16.98;1.88;;;12.30;99.90;;;;;;5071972;28;20025;-73
2022/11/02 08:22:14;;;;;;;11.80;2.25;;;13.00;99.90;;;;;;5072857;28;20033;-74
2022/11/02 08:24:40;;;;;;;9.65;2.38;;;12.30;99.90;;;;;;5072118;28;20028;-75
2022/11/02 08:27:08;;;;;;;10.48;1.95;;;12.20;99.90;;;;;;5072846;28;20025;-76
2022/11/02 08:29:35;;;;;;;15.63;2.38;;;12.20;99.90;;;;;;5072418;28;20036;-75
2022/11/02 08:32:01;;;;;;;10.80;2.10;;;12.20;99.90;;;;;;5071970;28;20377;-75
2022/11/02 08:34:27;;;;;;;12.07;2.78;;;12.30;99.90;;;;;;5070973;28;20107;-75
2022/11/02 08:36:53;;;;;;;5.60;1.30;;;12.20;99.90;;;;;;5071128;28;20096;-75
2022/11/02 08:39:18;;;;;;;8.40;1.65;;;12.20;99.90;;;;;;5070933;28;20028;-75
2022/11/02 08:41:44;;;;;;;15.07;2.60;;;12.30;99.90;;;;;;5077904;28;20024;-75
2022/11/02 08:44:09;;;;;;;13.57;1.90;;;12.20;99.90;;;;;;5076895;28;20035;-74
2022/11/02 08:46:35;;;;;;;10.00;2.00;;;12.20;99.90;;;;;;5074988;28;20472;-76
2022/11/02 08:49:00;;;;;;;8.05;1.55;;;12.30;99.90;;;;;;5078553;28;20423;-76
2022/11/02 08:51:26;;;;;;;14.23;1.92;;;12.20;99.90;;;;;;5075302;28;20460;-77
2022/11/02 08:53:52;;;;;;;9.13;1.50;;;12.30;99.90;;;;;;5079015;28;20431;-74
2022/11/02 08:56:18;;;;;;;10.75;2.08;;;12.40;99.90;;;;;;5082613;28;20031;-75
2022/11/02 08:58:43;;;;;;;9.52;2.20;;;12.40;99.90;;;;;;5089956;28;20116;-76
2022/11/02 09:01:09;;;;;;;9.57;1.80;;;12.40;99.90;;;;;;5073250;28;20051;-74
2022/11/02 09:03:34;;;;;;;11.75;1.63;;;12.40;99.90;;;;;;5059626;28;20538;-75
2022/11/02 09:06:01;;;;;;;11.15;2.28;;;12.50;99.90;;;;;;5084757;28;20028;-76
2022/11/02 09:08:28;;;;;;;10.35;1.52;;;12.50;99.90;;;;;;5074681;28;20041;-74
2022/11/02 09:10:57;;;;;;;8.52;2.30;;;12.50;99.90;;;;;;5059716;28;20033;-75
2022/11/02 09:13:24;;;;;;;8.13;1.87;;;12.50;99.90;;;;;;5063647;28;20021;-75
2022/11/02 09:15:54;;;;;;;10.32;1.80;;;12.60;99.90;;;;;;5068924;28;20271;-76
2022/11/02 09:18:23;;;;;;;;;;;12.60;99.90;;;;;;5088004;28;20028;-75
2022/11/02 09:20:50;;;;;;;11.43;1.30;;;12.70;99.90;;;;;;5088281;28;19964;-74
2022/11/02 09:23:16;;;;;;;11.82;2.85;;;12.80;99.90;;;;;;5093015;28;20020;-75
2022/11/02 09:25:43;;;;;;;9.60;1.83;;;12.90;99.90;;;;;;5087285;28;20108;-75
2022/11/02 09:28:08;;;;;;;10.15;1.67;;;13.00;99.90;;;;;;5091514;28;20126;-76
2022/11/02 09:30:34;;;;;;;17.83;1.95;;;13.00;99.90;;;;;;5091055;28;20110;-75
2022/11/02 09:33:02;;;;;;;7.18;1.70;;;13.00;99.90;;;;;;5087762;28;20028;-76
2022/11/02 09:35:29;;;;;;;9.90;1.40;;;13.00;99.90;;;;;;5061599;28;20021;-74
2022/11/02 09:37:55;;;;;;;17.40;1.65;;;13.10;99.90;;;;;;5074354;28;20087;-74
2022/11/02 09:40:23;;;;;;;9.25;1.40;;;13.10;99.90;;;;;;5081574;28;20051;-75
2022/11/02 09:42:57;;;;;;;10.50;2.47;;;13.10;99.90;;;;;;5077701;28;20107;-74
2022/11/02 09:45:24;;;;;;;8.77;2.00;;;13.20;99.90;;;;;;5076653;28;20023;-76
2022/11/02 09:47:58;;;;;;;4.93;1.20;;;13.20;99.90;;;;;;5070479;28;20056;-75
2022/11/02 09:50:29;;;;;;;15.13;2.75;;;13.30;99.90;;;;;;5072899;28;20050;-75
2022/11/02 09:53:03;;;;;;;15.18;2.63;;;13.40;99.90;;;;;;5072035;28;20101;-74
2022/11/02 09:55:33;;;;;;;12.75;2.20;;;13.40;99.90;;;;;;5072232;28;20082;-76
2022/11/02 09:58:06;;;;;;;11.02;2.00;;;13.50;99.90;;;;;;5073457;28;20071;-74
2022/11/02 10:00:37;;;;;;;12.05;2.17;;;13.60;99.90;;;;;;5071108;28;20031;-74
2022/11/02 10:03:33;;;;;;;8.35;2.13;;;13.70;99.90;;;;;;5071126;28;20024;-73
2022/11/02 10:06:21;;;;;;;15.68;2.10;;;13.70;99.90;;;;;;5071107;28;20059;-75
2022/11/02 10:09:06;;;;;;;16.40;2.55;;;13.80;99.90;;;;;;5068982;28;20028;-75
2022/11/02 10:12:01;;;;;;;10.77;2.60;;;13.80;99.90;;;;;;5069852;28;20107;-74
2022/11/02 10:14:31;;;;;;;13.82;2.35;;;13.80;99.90;;;;;;5078980;28;20077;-76
2022/11/02 10:17:02;;;;;;;16.65;2.20;;;13.80;99.90;;;;;;5077624;28;20017;-74
2022/11/02 10:19:29;;;;;;;13.95;2.92;;;13.80;99.90;;;;;;5071694;28;20410;-75
2022/11/02 10:21:57;;;;;;;11.13;2.35;;;13.70;99.90;;;;;;5072899;28;20026;-75
2022/11/02 10:24:32;;;;;;;11.73;2.55;;;13.70;99.90;;;;;;5069587;28;20032;-75
2022/11/02 10:27:03;;;;;;;11.95;2.58;;;13.70;99.90;;;;;;5071401;28;20310;-74
2022/11/02 10:29:51;;;;;;;13.15;2.90;;;13.70;99.90;;;;;;5071644;28;20033;-74
2022/11/02 10:32:17;;;;;;;16.00;2.95;;;13.60;99.90;;;;;;5071420;28;20504;-75
2022/11/02 10:34:44;;;;;;;16.33;2.55;;;13.60;99.90;;;;;;5072630;28;20043;-75
2022/11/02 10:37:29;;;;;;;12.57;2.25;;;13.60;99.90;;;;;;5072397;28;20101;-75
2022/11/02 10:40:20;;;;;;;18.40;2.33;;;13.60;99.90;;;;;;5073221;28;20032;-75
2022/11/02 10:42:57;;;;;;;12.43;2.35;;;13.60;99.90;;;;;;5070420;28;20024;-76
2022/11/02 10:46:24;;;;;;;12.07;2.13;;;13.60;99.90;;;;;;5071457;28;20021;-75
2022/11/02 10:49:09;;;;;;;11.55;2.30;;;13.70;99.90;;;;;;4997094;28;20057;-75
2022/11/02 10:51:34;;;;;;;14.38;2.80;;;13.70;99.90;;;;;;5077629;28;20362;-74
2022/11/02 10:54:10;;;;;;;9.30;2.05;;;13.70;99.90;;;;;;5070649;28;20092;-75
2022/11/02 10:56:37;;;;;;;16.48;2.42;;;13.70;99.90;;;;;;5072893;28;20016;-74
2022/11/02 10:59:09;;;;;;;12.38;3.15;;;13.70;99.90;;;;;;5083879;28;20020;-75
2022/11/02 11:01:35;;;;;;;15.52;2.53;;;13.70;99.90;;;;;;5089006;28;20020;-76
2022/11/02 11:04:04;;;;;;;12.77;2.85;;;13.80;99.90;;;;;;5091741;28;20057;-76
2022/11/02 11:06:36;;;;;;;9.77;2.07;;;13.80;99.90;;;;;;5087961;28;20042;-75
2022/11/02 11:09:16;;;;;;;18.88;4.20;;;13.90;99.90;;;;;;5070077;28;20063;-74
2022/11/02 11:11:58;;;;;;;13.32;2.10;;;13.90;99.90;;;;;;5071061;28;20028;-74
2022/11/02 11:14:29;;;;;;;11.77;2.28;;;14.00;99.90;;;;;;5072905;28;20031;-75
2022/11/02 11:17:00;;;;;;;11.95;2.67;;;14.00;99.90;;;;;;5073479;28;20017;-75
2022/11/02 11:19:33;;;;;;;12.93;2.30;;;14.00;99.90;;;;;;5072534;28;20784;-75
2022/11/02 11:21:59;;;;;;;18.50;2.78;;;14.00;99.90;;;;;;5074143;28;20456;-75
2022/11/02 11:24:34;;;;;;;21.23;4.50;;;14.00;99.90;;;;;;5072944;28;20025;-75
2022/11/02 11:27:12;;;;;;;8.00;2.40;;;14.00;99.90;;;;;;5071051;28;20054;-76
2022/11/02 11:29:55;;;;;;;11.82;2.38;;;14.00;99.90;;;;;;5076865;28;20392;-74
2022/11/02 11:32:28;;;;;;;11.63;2.60;;;14.10;99.90;;;;;;5051985;28;20032;-75
2022/11/02 11:35:03;;;;;;;14.68;3.28;;;14.10;99.90;;;;;;5051262;28;20412;-75
2022/11/02 11:37:29;;;;;;;15.68;3.55;;;14.10;99.90;;;;;;5055457;28;20025;-74
2022/11/02 11:40:22;;;;;;;13.65;2.45;;;14.10;99.90;;;;;;5065002;28;20417;-75
2022/11/02 11:42:54;;;;;;;12.07;2.55;;;14.20;99.90;;;;;;5071910;28;20031;-75
2022/11/02 11:45:23;;;;;;;18.35;2.63;;;14.20;99.90;;;;;;5078947;28;20383;-75
2022/11/02 11:48:25;;;;;;;13.77;2.88;;;14.30;99.90;;;;;;5074987;28;20035;-75
2022/11/02 11:50:51;;;;;;;12.80;2.25;;;14.40;99.90;;;;;;5036796;28;20044;-75
2022/11/02 11:53:24;;;;;;;15.95;2.58;;;14.40;99.90;;;;;;5072077;28;20078;-76
2022/11/02 11:55:52;;;;;;;11.02;2.78;;;14.40;99.90;;;;;;5070987;28;20036;-75
2022/11/02 11:58:29;;;;;;;12.00;2.28;;;14.40;99.90;;;;;;5072388;28;20021;-74
2022/11/02 12:01:19;;;;;;;21.60;2.80;;;14.40;99.90;;;;;;5064564;28;20101;-75
2022/11/02 12:04:01;;;;;;;12.80;2.17;;;14.50;99.90;;;;;;5071849;28;20123;-75
2022/11/02 12:06:50;;;;;;;15.52;3.13;;;14.50;99.90;;;;;;5069017;28;20024;-76
2022/11/02 12:09:52;;;;;;;9.10;2.38;;;14.50;99.90;;;;;;5070229;28;20028;-76
2022/11/02 12:12:32;;;;;;;10.10;1.90;;;14.60;99.90;;;;;;5071580;28;20031;-75
2022/11/02 12:15:42;;;;;;;17.80;3.90;;;14.60;99.90;;;;;;5071606;28;20048;-75
2022/11/02 12:18:16;;;;;;;14.40;2.58;;;14.60;99.90;;;;;;5069983;28;20270;-75
2022/11/02 12:21:02;;;;;;;11.52;2.70;;;14.70;99.90;;;;;;5068594;28;20025;-75
2022/11/02 12:23:49;;;;;;;13.75;2.42;;;14.70;99.90;;;;;;5069215;28;20017;-76
2022/11/02 12:26:20;;;;;;;12.07;1.85;;;14.70;99.90;;;;;;5072186;28;20064;-76
2022/11/02 12:29:20;;;;;;;13.20;2.10;;;14.70;99.90;;;;;;5071850;28;20025;-75
2022/11/02 12:31:57;;;;;;;8.10;2.03;;;14.90;99.90;;;;;;5073403;28;20035;-75
2022/11/02 12:34:44;;;;;;;7.50;2.17;;;14.80;99.90;;;;;;5073184;28;20603;-74
2022/11/02 12:37:31;;;;;;;16.85;1.92;;;14.90;99.90;;;;;;5075758;28;20016;-74
2022/11/02 12:40:20;;;;;;;11.60;2.25;;;14.90;99.90;;;;;;5094923;28;20043;-75
2022/11/02 12:43:07;;;;;;;22.23;2.83;;;14.90;99.90;;;;;;5073243;28;20078;-74
2022/11/02 12:45:51;;;;;;;9.88;2.03;;;15.00;99.90;;;;;;5084289;28;20031;-75
2022/11/02 12:48:26;;;;;;;6.15;1.67;;;15.00;99.90;;;;;;5082480;28;20606;-74
2022/11/02 12:51:01;;;;;;;7.72;1.95;;;14.90;99.90;;;;;;5078784;28;20049;-73
2022/11/02 12:53:36;;;;;;;12.88;2.53;;;14.80;99.90;;;;;;5074092;28;20094;-74
2022/11/02 12:56:06;;;;;;;10.77;2.33;;;14.80;99.90;;;;;;5073235;28;20488;-74
2022/11/02 12:58:37;;;;;;;8.43;2.08;;;14.90;99.90;;;;;;5073540;28;20028;-73
2022/11/02 13:01:30;;;;;;;8.07;1.75;;;15.00;99.90;;;;;;5073720;28;20029;-73
2022/11/02 13:04:17;;;;;;;12.63;2.17;;;15.10;99.90;;;;;;5072200;28;20033;-74
2022/11/02 13:06:46;;;;;;;7.90;2.05;;;15.20;99.90;;;;;;5070841;28;20086;-75
2022/11/02 13:09:31;;;;;;;12.48;2.42;;;15.30;99.90;;;;;;5075132;28;20033;-74
2022/11/02 13:12:14;;;;;;;9.90;1.58;;;15.30;99.90;;;;;;5088875;28;20032;-74
2022/11/02 13:14:46;;;;;;;9.30;2.10;;;15.20;99.90;;;;;;5077171;28;20035;-74
2022/11/02 13:17:45;;;;;;;10.38;2.13;;;15.30;99.90;;;;;;5077544;28;20099;-75